sensor_id;sensor_type;location;lat;lon;timestamp;temperature;humidity
59660;DHT22;45534;52.690;6.268;2023-04-01T00:00:19;9.80;99.90
59660;DHT22;45534;52.690;6.268;2023-04-01T00:02:46;9.80;99.90
59660;DHT22;45534;52.690;6.268;2023-04-01T00:05:12;9.80;99.90
59660;DHT22;45534;52.690;6.268;2023-04-01T00:07:38;9.80;99.90
59660;DHT22;45534;52.690;6.268;2023-04-01T00:10:05;9.80;99.90
59660;DHT22;45534;52.690;6.268;2023-04-01T00:12:31;9.80;99.90
59660;DHT22;45534;52.690;6.268;2023-04-01T00:14:57;9.80;99.90
59660;DHT22;45534;52.690;6.268;2023-04-01T00:17:23;9.80;99.90
59660;DHT22;45534;52.690;6.268;2023-04-01T00:19:49;9.80;99.90
59660;DHT22;45534;52.690;6.268;2023-04-01T00:22:15;9.80;99.90
59660;DHT22;45534;52.690;6.268;2023-04-01T00:24:41;9.80;99.90
59660;DHT22;45534;52.690;6.268;2023-04-01T00:27:06;9.80;99.90
59660;DHT22;45534;52.690;6.268;2023-04-01T00:29:34;9.80;99.90
59660;DHT22;45534;52.690;6.268;2023-04-01T00:32:01;9.80;99.90
59660;DHT22;45534;52.690;6.268;2023-04-01T00:34:27;9.80;99.90
59660;DHT22;45534;52.690;6.268;2023-04-01T00:36:52;9.80;99.90
59660;DHT22;45534;52.690;6.268;2023-04-01T00:39:20;9.80;99.90
59660;DHT22;45534;52.690;6.268;2023-04-01T00:41:47;9.80;99.90
59660;DHT22;45534;52.690;6.268;2023-04-01T00:44:21;9.80;99.90
59660;DHT22;45534;52.690;6.268;2023-04-01T00:46:48;9.80;99.90
59660;DHT22;45534;52.690;6.268;2023-04-01T00:49:15;9.80;99.90
59660;DHT22;45534;52.690;6.268;2023-04-01T00:51:43;9.80;99.90
59660;DHT22;45534;52.690;6.268;2023-04-01T00:54:11;9.80;99.90
59660;DHT22;45534;52.690;6.268;2023-04-01T00:56:41;9.80;99.90
59660;DHT22;45534;52.690;6.268;2023-04-01T00:59:14;9.80;99.90
59660;DHT22;45534;52.690;6.268;2023-04-01T01:01:41;9.80;99.90
59660;DHT22;45534;52.690;6.268;2023-04-01T01:04:18;9.80;99.90
59660;DHT22;45534;52.690;6.268;2023-04-01T01:12:44;9.80;99.90
59660;DHT22;45534;52.690;6.268;2023-04-01T01:18:21;9.80;99.90
59660;DHT22;45534;52.690;6.268;2023-04-01T01:23:57;9.80;99.90
59660;DHT22;45534;52.690;6.268;2023-04-01T01:36:33;9.80;99.90
59660;DHT22;45534;52.690;6.268;2023-04-01T01:39:02;9.80;99.90
59660;DHT22;45534;52.690;6.268;2023-04-01T01:41:29;9.80;99.90
59660;DHT22;45534;52.690;6.268;2023-04-01T01:43:56;9.80;99.90
59660;DHT22;45534;52.690;6.268;2023-04-01T01:46:25;9.80;99.90
59660;DHT22;45534;52.690;6.268;2023-04-01T01:48:52;9.80;99.90
59660;DHT22;45534;52.690;6.268;2023-04-01T01:51:20;9.80;99.90
59660;DHT22;45534;52.690;6.268;2023-04-01T01:53:47;9.80;99.90
59660;DHT22;45534;52.690;6.268;2023-04-01T01:56:12;9.80;99.90
59660;DHT22;45534;52.690;6.268;2023-04-01T01:58:47;9.80;99.90
59660;DHT22;45534;52.690;6.268;2023-04-01T02:01:22;9.80;99.90
59660;DHT22;45534;52.690;6.268;2023-04-01T02:03:48;9.80;99.90
59660;DHT22;45534;52.690;6.268;2023-04-01T02:06:18;9.80;99.90
59660;DHT22;45534;52.690;6.268;2023-04-01T02:08:55;9.80;99.90
59660;DHT22;45534;52.690;6.268;2023-04-01T02:16:36;9.80;99.90
59660;DHT22;45534;52.690;6.268;2023-04-01T02:19:06;9.80;99.90
59660;DHT22;45534;52.690;6.268;2023-04-01T02:21:36;9.80;99.90
59660;DHT22;45534;52.690;6.268;2023-04-01T02:24:06;9.80;99.90
59660;DHT22;45534;52.690;6.268;2023-04-01T02:26:32;9.80;99.90
59660;DHT22;45534;52.690;6.268;2023-04-01T02:29:01;9.80;99.90
59660;DHT22;45534;52.690;6.268;2023-04-01T02:31:28;9.80;99.90
59660;DHT22;45534;52.690;6.268;2023-04-01T02:33:54;9.80;99.90
59660;DHT22;45534;52.690;6.268;2023-04-01T02:36:20;9.80;99.90
59660;DHT22;45534;52.690;6.268;2023-04-01T02:38:46;9.80;99.90
59660;DHT22;45534;52.690;6.268;2023-04-01T02:41:13;9.80;99.90
59660;DHT22;45534;52.690;6.268;2023-04-01T02:43:39;9.80;99.90
59660;DHT22;45534;52.690;6.268;2023-04-01T02:46:04;9.80;99.90
59660;DHT22;45534;52.690;6.268;2023-04-01T02:48:30;9.80;99.90
59660;DHT22;45534;52.690;6.268;2023-04-01T02:50:56;9.80;99.90
59660;DHT22;45534;52.690;6.268;2023-04-01T02:53:22;9.80;99.90
59660;DHT22;45534;52.690;6.268;2023-04-01T02:55:48;9.80;99.90
59660;DHT22;45534;52.690;6.268;2023-04-01T02:58:16;9.80;99.90
59660;DHT22;45534;52.690;6.268;2023-04-01T03:00:42;9.80;99.90
59660;DHT22;45534;52.690;6.268;2023-04-01T03:03:08;9.80;99.90
59660;DHT22;45534;52.690;6.268;2023-04-01T03:05:34;9.80;99.90
59660;DHT22;45534;52.690;6.268;2023-04-01T03:08:00;9.80;99.90
59660;DHT22;45534;52.690;6.268;2023-04-01T03:10:26;9.80;99.90
59660;DHT22;45534;52.690;6.268;2023-04-01T03:12:52;9.80;99.90
59660;DHT22;45534;52.690;6.268;2023-04-01T03:15:18;9.80;99.90
59660;DHT22;45534;52.690;6.268;2023-04-01T03:17:43;9.80;99.90
59660;DHT22;45534;52.690;6.268;2023-04-01T03:20:10;9.80;99.90
59660;DHT22;45534;52.690;6.268;2023-04-01T03:22:36;9.80;99.90
59660;DHT22;45534;52.690;6.268;2023-04-01T03:25:04;9.80;99.90
59660;DHT22;45534;52.690;6.268;2023-04-01T03:27:30;9.80;99.90
59660;DHT22;45534;52.690;6.268;2023-04-01T03:29:56;9.80;99.90
59660;DHT22;45534;52.690;6.268;2023-04-01T03:32:21;9.80;99.90
59660;DHT22;45534;52.690;6.268;2023-04-01T03:34:47;9.80;99.90
59660;DHT22;45534;52.690;6.268;2023-04-01T03:37:13;9.80;99.90
59660;DHT22;45534;52.690;6.268;2023-04-01T03:39:39;9.80;99.90
59660;DHT22;45534;52.690;6.268;2023-04-01T03:42:05;9.80;99.90
59660;DHT22;45534;52.690;6.268;2023-04-01T03:44:33;9.80;99.90
59660;DHT22;45534;52.690;6.268;2023-04-01T03:46:59;9.80;99.90
59660;DHT22;45534;52.690;6.268;2023-04-01T03:49:25;9.80;99.90
59660;DHT22;45534;52.690;6.268;2023-04-01T03:51:51;9.80;99.90
59660;DHT22;45534;52.690;6.268;2023-04-01T03:54:17;9.80;99.90
59660;DHT22;45534;52.690;6.268;2023-04-01T03:56:43;9.80;99.90
59660;DHT22;45534;52.690;6.268;2023-04-01T03:59:09;9.90;99.90
59660;DHT22;45534;52.690;6.268;2023-04-01T04:01:35;9.80;99.90
59660;DHT22;45534;52.690;6.268;2023-04-01T04:04:01;9.90;99.90
59660;DHT22;45534;52.690;6.268;2023-04-01T04:06:27;9.90;99.90
59660;DHT22;45534;52.690;6.268;2023-04-01T04:08:53;9.90;99.90
59660;DHT22;45534;52.690;6.268;2023-04-01T04:11:20;9.90;99.90
59660;DHT22;45534;52.690;6.268;2023-04-01T04:13:46;9.90;99.90
59660;DHT22;45534;52.690;6.268;2023-04-01T04:16:13;9.90;99.90
59660;DHT22;45534;52.690;6.268;2023-04-01T04:18:39;9.90;99.90
59660;DHT22;45534;52.690;6.268;2023-04-01T04:21:05;9.90;99.90
59660;DHT22;45534;52.690;6.268;2023-04-01T04:23:31;9.90;99.90
59660;DHT22;45534;52.690;6.268;2023-04-01T04:26:00;9.90;99.90
59660;DHT22;45534;52.690;6.268;2023-04-01T04:28:27;9.90;99.90
59660;DHT22;45534;52.690;6.268;2023-04-01T04:30:53;9.90;99.90
59660;DHT22;45534;52.690;6.268;2023-04-01T04:33:20;9.90;99.90
59660;DHT22;45534;52.690;6.268;2023-04-01T04:35:45;9.90;99.90
59660;DHT22;45534;52.690;6.268;2023-04-01T04:38:11;9.90;99.90
59660;DHT22;45534;52.690;6.268;2023-04-01T04:40:38;9.90;99.90
59660;DHT22;45534;52.690;6.268;2023-04-01T04:43:04;9.90;99.90
59660;DHT22;45534;52.690;6.268;2023-04-01T04:45:30;9.90;99.90
59660;DHT22;45534;52.690;6.268;2023-04-01T04:47:56;9.90;99.90
59660;DHT22;45534;52.690;6.268;2023-04-01T04:50:22;9.90;99.90
59660;DHT22;45534;52.690;6.268;2023-04-01T04:52:47;9.90;99.90
59660;DHT22;45534;52.690;6.268;2023-04-01T04:55:13;9.90;99.90
59660;DHT22;45534;52.690;6.268;2023-04-01T04:57:40;9.90;99.90
59660;DHT22;45534;52.690;6.268;2023-04-01T05:00:07;9.90;99.90
59660;DHT22;45534;52.690;6.268;2023-04-01T05:02:33;9.90;99.90
59660;DHT22;45534;52.690;6.268;2023-04-01T05:04:59;9.90;99.90
59660;DHT22;45534;52.690;6.268;2023-04-01T05:07:24;9.90;99.90
59660;DHT22;45534;52.690;6.268;2023-04-01T05:09:50;9.90;99.90
59660;DHT22;45534;52.690;6.268;2023-04-01T05:12:16;9.90;99.90
59660;DHT22;45534;52.690;6.268;2023-04-01T05:14:42;9.90;99.90
59660;DHT22;45534;52.690;6.268;2023-04-01T05:17:13;9.90;99.90
59660;DHT22;45534;52.690;6.268;2023-04-01T05:19:40;9.90;99.90
59660;DHT22;45534;52.690;6.268;2023-04-01T05:22:06;9.90;99.90
59660;DHT22;45534;52.690;6.268;2023-04-01T05:24:32;9.90;99.90
59660;DHT22;45534;52.690;6.268;2023-04-01T05:26:58;9.90;99.90
59660;DHT22;45534;52.690;6.268;2023-04-01T05:29:25;9.90;99.90
59660;DHT22;45534;52.690;6.268;2023-04-01T05:31:51;9.90;99.90
59660;DHT22;45534;52.690;6.268;2023-04-01T05:34:17;9.90;99.90
59660;DHT22;45534;52.690;6.268;2023-04-01T05:36:43;9.90;99.90
59660;DHT22;45534;52.690;6.268;2023-04-01T05:39:09;9.90;99.90
59660;DHT22;45534;52.690;6.268;2023-04-01T05:41:38;9.90;99.90
59660;DHT22;45534;52.690;6.268;2023-04-01T05:44:04;9.90;99.90
59660;DHT22;45534;52.690;6.268;2023-04-01T05:46:31;9.90;99.90
59660;DHT22;45534;52.690;6.268;2023-04-01T05:48:57;9.90;99.90
59660;DHT22;45534;52.690;6.268;2023-04-01T05:51:23;9.90;99.90
59660;DHT22;45534;52.690;6.268;2023-04-01T05:53:49;9.90;99.90
59660;DHT22;45534;52.690;6.268;2023-04-01T05:56:15;9.90;99.90
59660;DHT22;45534;52.690;6.268;2023-04-01T05:58:41;9.90;99.90
59660;DHT22;45534;52.690;6.268;2023-04-01T06:01:10;9.90;99.90
59660;DHT22;45534;52.690;6.268;2023-04-01T06:03:36;9.90;99.90
59660;DHT22;45534;52.690;6.268;2023-04-01T06:06:03;9.90;99.90
59660;DHT22;45534;52.690;6.268;2023-04-01T06:08:31;9.90;99.90
59660;DHT22;45534;52.690;6.268;2023-04-01T06:14:11;10.00;99.90
59660;DHT22;45534;52.690;6.268;2023-04-01T06:19:39;9.90;99.90
59660;DHT22;45534;52.690;6.268;2023-04-01T06:41:32;10.10;99.90
59660;DHT22;45534;52.690;6.268;2023-04-01T06:47:44;10.10;99.90
59660;DHT22;45534;52.690;6.268;2023-04-01T06:50:28;10.20;99.90
59660;DHT22;45534;52.690;6.268;2023-04-01T06:55:53;10.20;99.90
59660;DHT22;45534;52.690;6.268;2023-04-01T06:58:36;10.20;99.90
59660;DHT22;45534;52.690;6.268;2023-04-01T07:01:07;10.20;99.90
59660;DHT22;45534;52.690;6.268;2023-04-01T07:03:42;10.30;99.90
59660;DHT22;45534;52.690;6.268;2023-04-01T07:06:36;10.30;99.90
59660;DHT22;45534;52.690;6.268;2023-04-01T07:09:08;10.40;99.90
59660;DHT22;45534;52.690;6.268;2023-04-01T07:11:37;10.40;99.90
59660;DHT22;45534;52.690;6.268;2023-04-01T07:14:28;10.40;99.90
59660;DHT22;45534;52.690;6.268;2023-04-01T07:17:00;10.40;99.90
59660;DHT22;45534;52.690;6.268;2023-04-01T07:19:46;10.40;99.90
59660;DHT22;45534;52.690;6.268;2023-04-01T07:22:38;10.50;99.90
59660;DHT22;45534;52.690;6.268;2023-04-01T07:25:13;10.50;99.90
59660;DHT22;45534;52.690;6.268;2023-04-01T07:27:41;10.60;99.90
59660;DHT22;45534;52.690;6.268;2023-04-01T07:30:17;10.60;99.90
59660;DHT22;45534;52.690;6.268;2023-04-01T07:35:34;10.60;99.90
59660;DHT22;45534;52.690;6.268;2023-04-01T07:38:27;10.60;99.90
59660;DHT22;45534;52.690;6.268;2023-04-01T07:52:05;11.00;99.90
59660;DHT22;45534;52.690;6.268;2023-04-01T08:05:26;10.90;99.90
59660;DHT22;45534;52.690;6.268;2023-04-01T08:21:02;11.20;99.90
59660;DHT22;45534;52.690;6.268;2023-04-01T08:23:44;11.20;99.90
59660;DHT22;45534;52.690;6.268;2023-04-01T08:26:35;11.20;99.90
59660;DHT22;45534;52.690;6.268;2023-04-01T08:29:55;11.30;99.90
59660;DHT22;45534;52.690;6.268;2023-04-01T08:32:06;11.40;99.90
59660;DHT22;45534;52.690;6.268;2023-04-01T08:34:37;11.40;99.90
59660;DHT22;45534;52.690;6.268;2023-04-01T08:37:25;11.40;99.90
59660;DHT22;45534;52.690;6.268;2023-04-01T08:51:53;11.30;99.90
59660;DHT22;45534;52.690;6.268;2023-04-01T08:57:52;11.40;99.90
59660;DHT22;45534;52.690;6.268;2023-04-01T09:02:50;11.30;99.90
59660;DHT22;45534;52.690;6.268;2023-04-01T09:05:36;11.40;99.90
59660;DHT22;45534;52.690;6.268;2023-04-01T09:11:17;11.50;99.90
59660;DHT22;45534;52.690;6.268;2023-04-01T09:27:34;11.80;99.90
59660;DHT22;45534;52.690;6.268;2023-04-01T09:35:47;11.80;99.90
59660;DHT22;45534;52.690;6.268;2023-04-01T09:55:06;11.80;99.90
59660;DHT22;45534;52.690;6.268;2023-04-01T11:19:42;12.50;99.90
59660;DHT22;45534;52.690;6.268;2023-04-01T11:31:20;12.20;99.90
59660;DHT22;45534;52.690;6.268;2023-04-01T11:34:05;12.10;99.90
59660;DHT22;45534;52.690;6.268;2023-04-01T11:44:46;12.00;99.90
59660;DHT22;45534;52.690;6.268;2023-04-01T11:58:35;11.30;99.90
59660;DHT22;45534;52.690;6.268;2023-04-01T12:01:26;11.20;99.90
59660;DHT22;45534;52.690;6.268;2023-04-01T12:04:17;11.10;99.90
59660;DHT22;45534;52.690;6.268;2023-04-01T12:07:05;10.90;99.90
59660;DHT22;45534;52.690;6.268;2023-04-01T12:20:47;10.50;99.90
59660;DHT22;45534;52.690;6.268;2023-04-01T12:34:55;10.50;99.90
59660;DHT22;45534;52.690;6.268;2023-04-01T12:57:33;10.70;99.90
59660;DHT22;45534;52.690;6.268;2023-04-01T13:00:30;10.70;99.90
59660;DHT22;45534;52.690;6.268;2023-04-01T13:03:18;10.70;99.90
59660;DHT22;45534;52.690;6.268;2023-04-01T13:22:17;10.40;99.90
59660;DHT22;45534;52.690;6.268;2023-04-01T13:24:50;10.40;99.90
59660;DHT22;45534;52.690;6.268;2023-04-01T13:27:30;10.40;99.90
59660;DHT22;45534;52.690;6.268;2023-04-01T13:38:30;10.30;99.90
59660;DHT22;45534;52.690;6.268;2023-04-01T13:43:36;10.30;99.90
59660;DHT22;45534;52.690;6.268;2023-04-01T13:56:53;10.20;99.90
59660;DHT22;45534;52.690;6.268;2023-04-01T14:27:01;10.20;99.90
59660;DHT22;45534;52.690;6.268;2023-04-01T14:38:06;10.00;99.90
59660;DHT22;45534;52.690;6.268;2023-04-01T14:52:28;9.80;99.90
59660;DHT22;45534;52.690;6.268;2023-04-01T14:54:56;9.80;99.90
59660;DHT22;45534;52.690;6.268;2023-04-01T14:57:26;9.70;99.90
59660;DHT22;45534;52.690;6.268;2023-04-01T15:00:17;9.70;99.90
59660;DHT22;45534;52.690;6.268;2023-04-01T15:08:18;9.70;99.90
59660;DHT22;45534;52.690;6.268;2023-04-01T15:24:35;9.60;99.90
59660;DHT22;45534;52.690;6.268;2023-04-01T15:38:36;9.50;99.90
59660;DHT22;45534;52.690;6.268;2023-04-01T15:41:16;9.50;99.90
59660;DHT22;45534;52.690;6.268;2023-04-01T15:43:49;9.50;99.90
59660;DHT22;45534;52.690;6.268;2023-04-01T15:52:23;9.40;99.90
59660;DHT22;45534;52.690;6.268;2023-04-01T16:00:30;9.30;99.90
59660;DHT22;45534;52.690;6.268;2023-04-01T16:11:43;9.20;99.90
59660;DHT22;45534;52.690;6.268;2023-04-01T16:14:47;9.10;99.90
59660;DHT22;45534;52.690;6.268;2023-04-01T16:22:39;9.10;99.90
59660;DHT22;45534;52.690;6.268;2023-04-01T16:28:11;9.00;99.90
59660;DHT22;45534;52.690;6.268;2023-04-01T16:30:44;9.10;99.90
59660;DHT22;45534;52.690;6.268;2023-04-01T16:35:56;9.10;99.90
59660;DHT22;45534;52.690;6.268;2023-04-01T16:38:38;9.00;99.90
59660;DHT22;45534;52.690;6.268;2023-04-01T16:41:17;9.00;99.90
59660;DHT22;45534;52.690;6.268;2023-04-01T16:43:50;9.00;99.90
59660;DHT22;45534;52.690;6.268;2023-04-01T16:46:32;9.00;99.90
59660;DHT22;45534;52.690;6.268;2023-04-01T16:49:15;9.00;99.90
59660;DHT22;45534;52.690;6.268;2023-04-01T16:55:00;9.00;99.90
59660;DHT22;45534;52.690;6.268;2023-04-01T17:03:03;8.90;99.90
59660;DHT22;45534;52.690;6.268;2023-04-01T17:05:56;8.90;99.90
59660;DHT22;45534;52.690;6.268;2023-04-01T17:08:47;8.90;99.90
59660;DHT22;45534;52.690;6.268;2023-04-01T17:12:00;8.90;99.90
59660;DHT22;45534;52.690;6.268;2023-04-01T17:19:31;8.80;99.90
59660;DHT22;45534;52.690;6.268;2023-04-01T17:22:27;8.70;99.90
59660;DHT22;45534;52.690;6.268;2023-04-01T17:33:31;8.60;99.90
59660;DHT22;45534;52.690;6.268;2023-04-01T17:39:13;8.50;99.90
59660;DHT22;45534;52.690;6.268;2023-04-01T17:42:05;8.50;99.90
59660;DHT22;45534;52.690;6.268;2023-04-01T17:45:02;8.40;99.90
59660;DHT22;45534;52.690;6.268;2023-04-01T17:55:48;8.10;99.90
59660;DHT22;45534;52.690;6.268;2023-04-01T18:12:25;7.90;99.90
59660;DHT22;45534;52.690;6.268;2023-04-01T18:18:10;7.90;99.90
59660;DHT22;45534;52.690;6.268;2023-04-01T18:21:23;7.90;99.90
59660;DHT22;45534;52.690;6.268;2023-04-01T18:23:57;7.90;99.90
59660;DHT22;45534;52.690;6.268;2023-04-01T18:26:35;7.80;99.90
59660;DHT22;45534;52.690;6.268;2023-04-01T18:32:55;7.80;99.90
59660;DHT22;45534;52.690;6.268;2023-04-01T18:38:16;7.70;99.90
59660;DHT22;45534;52.690;6.268;2023-04-01T18:40:51;7.70;99.90
59660;DHT22;45534;52.690;6.268;2023-04-01T18:43:32;7.70;99.90
59660;DHT22;45534;52.690;6.268;2023-04-01T18:51:56;7.60;99.90
59660;DHT22;45534;52.690;6.268;2023-04-01T18:54:45;7.50;99.90
59660;DHT22;45534;52.690;6.268;2023-04-01T18:57:16;7.50;99.90
59660;DHT22;45534;52.690;6.268;2023-04-01T19:05:39;7.40;99.90
59660;DHT22;45534;52.690;6.268;2023-04-01T19:08:31;7.40;99.90
59660;DHT22;45534;52.690;6.268;2023-04-01T19:19:29;7.30;99.90
59660;DHT22;45534;52.690;6.268;2023-04-01T19:22:11;7.30;99.90
59660;DHT22;45534;52.690;6.268;2023-04-01T19:30:54;7.20;99.90
59660;DHT22;45534;52.690;6.268;2023-04-01T19:33:59;7.20;99.90
59660;DHT22;45534;52.690;6.268;2023-04-01T19:44:59;7.10;99.90
59660;DHT22;45534;52.690;6.268;2023-04-01T19:51:25;7.10;99.90
59660;DHT22;45534;52.690;6.268;2023-04-01T19:56:22;7.00;99.90
59660;DHT22;45534;52.690;6.268;2023-04-01T19:59:19;7.00;99.90
59660;DHT22;45534;52.690;6.268;2023-04-01T20:04:53;7.00;99.90
59660;DHT22;45534;52.690;6.268;2023-04-01T20:07:28;6.90;99.90
59660;DHT22;45534;52.690;6.268;2023-04-01T20:12:46;6.90;99.90
59660;DHT22;45534;52.690;6.268;2023-04-01T20:15:36;6.90;99.90
59660;DHT22;45534;52.690;6.268;2023-04-01T20:18:19;6.90;99.90
59660;DHT22;45534;52.690;6.268;2023-04-01T20:21:03;6.80;99.90
59660;DHT22;45534;52.690;6.268;2023-04-01T20:23:41;6.80;99.90
59660;DHT22;45534;52.690;6.268;2023-04-01T20:26:12;6.80;99.90
59660;DHT22;45534;52.690;6.268;2023-04-01T20:28:43;6.80;99.90
59660;DHT22;45534;52.690;6.268;2023-04-01T20:31:20;6.80;99.90
59660;DHT22;45534;52.690;6.268;2023-04-01T20:36:56;6.70;99.90
59660;DHT22;45534;52.690;6.268;2023-04-01T20:42:29;6.80;99.90
59660;DHT22;45534;52.690;6.268;2023-04-01T20:45:21;6.70;99.90
59660;DHT22;45534;52.690;6.268;2023-04-01T20:48:02;6.70;99.90
59660;DHT22;45534;52.690;6.268;2023-04-01T20:50:58;6.70;99.90
59660;DHT22;45534;52.690;6.268;2023-04-01T20:53:28;6.70;99.90
59660;DHT22;45534;52.690;6.268;2023-04-01T20:56:39;6.70;99.90
59660;DHT22;45534;52.690;6.268;2023-04-01T21:24:25;6.40;99.90
59660;DHT22;45534;52.690;6.268;2023-04-01T21:35:18;6.40;99.90
59660;DHT22;45534;52.690;6.268;2023-04-01T21:43:46;6.40;99.90
59660;DHT22;45534;52.690;6.268;2023-04-01T21:49:31;6.30;99.90
59660;DHT22;45534;52.690;6.268;2023-04-01T21:55:10;6.30;99.90
59660;DHT22;45534;52.690;6.268;2023-04-01T21:58:05;6.30;99.90
59660;DHT22;45534;52.690;6.268;2023-04-01T22:01:27;6.30;99.90
59660;DHT22;45534;52.690;6.268;2023-04-01T22:06:12;6.20;99.90
59660;DHT22;45534;52.690;6.268;2023-04-01T22:14:04;6.20;99.90
59660;DHT22;45534;52.690;6.268;2023-04-01T22:16:57;6.20;99.90
59660;DHT22;45534;52.690;6.268;2023-04-01T22:27:54;6.10;99.90
59660;DHT22;45534;52.690;6.268;2023-04-01T22:30:29;6.10;99.90
59660;DHT22;45534;52.690;6.268;2023-04-01T22:35:56;6.10;99.90
59660;DHT22;45534;52.690;6.268;2023-04-01T22:38:49;6.10;99.90
59660;DHT22;45534;52.690;6.268;2023-04-01T22:43:50;6.10;99.90
59660;DHT22;45534;52.690;6.268;2023-04-01T22:49:33;6.00;99.90
59660;DHT22;45534;52.690;6.268;2023-04-01T22:54:32;6.00;99.90
59660;DHT22;45534;52.690;6.268;2023-04-01T22:57:10;6.00;99.90
59660;DHT22;45534;52.690;6.268;2023-04-01T22:59:51;6.00;99.90
59660;DHT22;45534;52.690;6.268;2023-04-01T23:02:35;6.00;99.90
59660;DHT22;45534;52.690;6.268;2023-04-01T23:05:04;6.00;99.90
59660;DHT22;45534;52.690;6.268;2023-04-01T23:12:47;5.90;99.90
59660;DHT22;45534;52.690;6.268;2023-04-01T23:15:15;5.90;99.90
59660;DHT22;45534;52.690;6.268;2023-04-01T23:26:34;5.80;99.90
59660;DHT22;45534;52.690;6.268;2023-04-01T23:29:02;5.80;99.90
59660;DHT22;45534;52.690;6.268;2023-04-01T23:31:40;5.80;99.90
59660;DHT22;45534;52.690;6.268;2023-04-01T23:36:47;5.80;99.90
59660;DHT22;45534;52.690;6.268;2023-04-01T23:39:21;5.70;99.90
59660;DHT22;45534;52.690;6.268;2023-04-01T23:41:48;5.70;99.90
59660;DHT22;45534;52.690;6.268;2023-04-01T23:44:16;5.70;99.90
59660;DHT22;45534;52.690;6.268;2023-04-01T23:46:44;5.70;99.90
59660;DHT22;45534;52.690;6.268;2023-04-01T23:49:18;5.70;99.90
59660;DHT22;45534;52.690;6.268;2023-04-01T23:51:55;5.70;99.90
59660;DHT22;45534;52.690;6.268;2023-04-01T23:54:33;5.70;99.90
59660;DHT22;45534;52.690;6.268;2023-04-01T23:56:59;5.70;99.90
59660;DHT22;45534;52.690;6.268;2023-04-01T23:59:29;5.60;99.90
